Time;durP1;ratioP1;P1;durP2;ratioP2;P2;SDS_P1;SDS_P2;PMS_P1;PMS_P2;Temp;Humidity;BMP_temperature;BMP_pressure;BME280_temperature;BME280_humidity;BME280_pressure;Samples;Min_cycle;Max_cycle;Signal;HPM_P1;HPM_P2
2021/10/16 00:01:59;;;;;;;7.07;5.57;;;12.50;79.90;;;;;;6223643;28;20440;-77
2021/10/16 00:05:01;;;;;;;8.38;6.53;;;12.50;79.80;;;;;;6222955;28;20417;-77
2021/10/16 00:08:03;;;;;;;9.07;6.13;;;12.50;79.90;;;;;;6223139;28;20467;-77
2021/10/16 00:11:05;;;;;;;6.93;5.72;;;12.50;79.80;;;;;;6222637;28;20417;-77
2021/10/16 00:14:07;;;;;;;6.55;5.72;;;12.50;79.90;;;;;;6223484;28;20443;-76
2021/10/16 00:17:10;;;;;;;8.90;5.93;;;12.50;80.00;;;;;;6223214;28;20421;-77
2021/10/16 00:20:12;;;;;;;6.60;5.75;;;12.50;80.10;;;;;;6222835;28;20805;-77
2021/10/16 00:23:14;;;;;;;8.60;5.28;;;12.50;79.90;;;;;;6222543;28;20412;-77
2021/10/16 00:26:16;;;;;;;10.35;6.50;;;12.50;80.00;;;;;;6222913;28;20443;-77
2021/10/16 00:29:18;;;;;;;6.55;5.97;;;12.40;80.10;;;;;;6222846;28;20536;-77
2021/10/16 00:32:21;;;;;;;6.20;5.57;;;12.50;80.10;;;;;;6222620;28;20463;-77
2021/10/16 00:35:23;;;;;;;8.45;6.22;;;12.50;80.00;;;;;;6222790;28;20417;-77
2021/10/16 00:38:25;;;;;;;6.10;5.50;;;12.50;80.10;;;;;;6222727;28;20433;-77
2021/10/16 00:41:27;;;;;;;6.75;6.13;;;12.50;80.00;;;;;;6222829;28;20444;-77
2021/10/16 00:44:28;;;;;;;7.03;6.32;;;12.40;80.10;;;;;;6217018;28;20515;-77
2021/10/16 00:47:31;;;;;;;6.07;5.47;;;12.40;80.10;;;;;;6223345;28;20412;-77
2021/10/16 00:50:33;;;;;;;7.00;5.60;;;12.40;80.10;;;;;;6247145;22;20436;-79
2021/10/16 00:53:36;;;;;;;7.50;5.65;;;12.40;80.20;;;;;;6224814;28;20512;-79
2021/10/16 00:56:40;;;;;;;7.70;5.75;;;12.40;80.50;;;;;;6228414;28;20417;-79
2021/10/16 00:59:42;;;;;;;6.20;5.43;;;12.30;80.40;;;;;;6227458;28;20492;-80
2021/10/16 01:02:45;;;;;;;8.52;6.60;;;12.40;80.50;;;;;;6203733;28;20419;-78
2021/10/16 01:05:48;;;;;;;6.78;5.70;;;12.40;80.30;;;;;;6204101;28;20438;-78
2021/10/16 01:08:50;;;;;;;7.22;6.53;;;12.50;80.00;;;;;;6203791;28;21001;-79
2021/10/16 01:11:53;;;;;;;12.57;9.45;;;12.50;80.00;;;;;;6203028;28;20520;-79
2021/10/16 01:14:58;;;;;;;7.70;6.90;;;12.50;80.30;;;;;;6203091;28;20523;-78
2021/10/16 01:18:01;;;;;;;6.53;5.80;;;12.50;80.10;;;;;;6203332;28;20439;-79
2021/10/16 01:21:06;;;;;;;9.82;8.35;;;12.50;80.20;;;;;;6202717;28;20415;-79
2021/10/16 01:24:10;;;;;;;9.63;7.37;;;12.50;79.90;;;;;;6203237;28;20923;-78
2021/10/16 01:27:13;;;;;;;11.38;8.68;;;12.50;80.00;;;;;;6202696;28;20423;-79
2021/10/16 01:30:17;;;;;;;10.15;8.77;;;12.60;80.30;;;;;;6202345;28;20438;-78
2021/10/16 01:33:18;;;;;;;13.18;9.85;;;12.60;80.10;;;;;;6203229;28;20426;-79
2021/10/16 01:36:22;;;;;;;10.30;8.82;;;12.70;79.80;;;;;;6202635;28;20423;-79
2021/10/16 01:39:24;;;;;;;15.10;13.27;;;12.80;79.90;;;;;;6202331;28;20433;-78
2021/10/16 01:42:26;;;;;;;15.23;13.35;;;12.80;79.90;;;;;;6202636;28;20470;-78
2021/10/16 01:45:29;;;;;;;13.73;12.18;;;12.80;80.00;;;;;;6203088;28;20442;-79
2021/10/16 01:48:31;;;;;;;13.55;12.15;;;12.80;80.10;;;;;;6203867;28;20430;-79
2021/10/16 01:51:34;;;;;;;16.20;12.80;;;12.90;80.00;;;;;;6203995;28;20443;-79
2021/10/16 01:54:36;;;;;;;16.85;13.90;;;12.90;80.00;;;;;;6203450;28;20485;-78
2021/10/16 01:57:37;;;;;;;16.58;14.85;;;12.90;80.10;;;;;;6205303;28;20533;-78
2021/10/16 02:00:40;;;;;;;18.17;15.47;;;13.00;80.10;;;;;;6204466;28;20509;-79
2021/10/16 02:03:42;;;;;;;17.63;14.65;;;13.00;80.20;;;;;;6208561;28;20414;-79
2021/10/16 02:06:46;;;;;;;18.67;15.50;;;13.00;80.00;;;;;;6209650;28;20418;-79
2021/10/16 02:09:48;;;;;;;18.63;16.38;;;13.10;79.90;;;;;;6209683;28;20464;-78
2021/10/16 02:12:49;;;;;;;18.95;15.55;;;13.10;79.90;;;;;;6208064;28;20441;-78
2021/10/16 02:15:51;;;;;;;17.95;16.02;;;13.10;80.00;;;;;;6208418;28;20446;-79
2021/10/16 02:18:53;;;;;;;18.38;16.38;;;13.00;80.00;;;;;;6208035;28;20753;-79
2021/10/16 02:21:56;;;;;;;18.80;16.17;;;13.00;80.30;;;;;;6208776;28;20434;-79
2021/10/16 02:24:58;;;;;;;16.65;14.93;;;12.90;80.60;;;;;;6208228;28;20418;-79
2021/10/16 02:28:00;;;;;;;21.38;16.05;;;12.90;80.80;;;;;;6209282;28;20425;-78
2021/10/16 02:31:02;;;;;;;19.05;16.77;;;12.80;81.00;;;;;;6208717;28;20418;-80
2021/10/16 02:34:04;;;;;;;23.40;16.27;;;12.80;81.10;;;;;;6208634;28;20434;-79
2021/10/16 02:37:07;;;;;;;19.38;17.30;;;12.80;81.10;;;;;;6208704;28;20837;-79
2021/10/16 02:40:09;;;;;;;28.53;18.13;;;12.90;80.90;;;;;;6208103;28;20419;-80
2021/10/16 02:43:11;;;;;;;19.35;16.52;;;12.90;80.80;;;;;;6207042;28;20783;-79
2021/10/16 02:46:13;;;;;;;19.67;17.38;;;12.90;80.60;;;;;;6206702;28;20520;-79
2021/10/16 02:49:15;;;;;;;20.77;17.00;;;13.00;80.50;;;;;;6206779;28;20510;-79
2021/10/16 02:52:18;;;;;;;18.45;15.98;;;13.00;80.50;;;;;;6205039;28;20558;-78
2021/10/16 02:55:20;;;;;;;23.58;19.20;;;13.00;80.30;;;;;;6205357;28;20482;-79
2021/10/16 02:58:21;;;;;;;21.30;17.85;;;13.00;80.30;;;;;;6206778;28;20430;-79
2021/10/16 03:01:23;;;;;;;22.35;18.45;;;12.90;80.40;;;;;;6207669;28;20518;-78
2021/10/16 03:04:25;;;;;;;21.85;18.77;;;12.90;80.60;;;;;;6207533;28;20418;-79
2021/10/16 03:07:28;;;;;;;24.25;18.52;;;12.90;80.60;;;;;;6207300;28;20430;-77
2021/10/16 03:10:30;;;;;;;23.35;19.20;;;13.00;80.60;;;;;;6205542;28;20434;-78
2021/10/16 03:13:33;;;;;;;25.92;20.05;;;13.10;80.40;;;;;;6206037;28;20426;-78
2021/10/16 03:16:34;;;;;;;24.73;19.45;;;13.00;80.50;;;;;;6205187;28;20477;-79
2021/10/16 03:19:36;;;;;;;25.75;19.60;;;13.00;80.60;;;;;;6205309;28;20489;-78
2021/10/16 03:22:39;;;;;;;21.85;18.67;;;13.00;80.70;;;;;;6205273;28;20402;-79
2021/10/16 03:25:41;;;;;;;25.05;19.27;;;13.00;80.50;;;;;;6205211;28;20438;-78
2021/10/16 03:28:43;;;;;;;29.90;20.83;;;13.10;80.40;;;;;;6205168;28;20419;-78
2021/10/16 03:31:45;;;;;;;30.17;20.95;;;13.10;80.20;;;;;;6205658;28;20418;-78
2021/10/16 03:34:46;;;;;;;27.93;20.87;;;13.10;80.20;;;;;;6205333;28;20417;-79
2021/10/16 03:37:50;;;;;;;29.55;21.52;;;13.10;80.20;;;;;;6205124;28;20444;-79
2021/10/16 03:40:51;;;;;;;32.60;23.48;;;13.10;80.20;;;;;;6204706;28;20825;-79
2021/10/16 03:43:53;;;;;;;34.42;25.08;;;13.10;80.20;;;;;;6204521;28;20851;-79
2021/10/16 03:46:55;;;;;;;34.88;23.48;;;13.00;80.30;;;;;;6205722;28;20427;-79
2021/10/16 03:49:57;;;;;;;38.20;24.97;;;13.00;80.50;;;;;;6205321;28;20627;-79
2021/10/16 03:53:01;;;;;;;33.70;23.92;;;12.90;80.80;;;;;;6205922;28;20450;-79
2021/10/16 03:56:03;;;;;;;33.55;24.58;;;12.90;81.00;;;;;;6204629;28;20424;-78
2021/10/16 03:59:04;;;;;;;34.65;23.73;;;12.80;80.80;;;;;;6205201;28;20545;-78
2021/10/16 04:02:06;;;;;;;34.05;23.67;;;12.70;81.30;;;;;;6203597;28;20568;-79
2021/10/16 04:05:09;;;;;;;37.53;25.70;;;12.70;81.70;;;;;;6203626;28;20532;-78
2021/10/16 04:08:12;;;;;;;35.83;25.90;;;12.60;81.80;;;;;;6201963;28;20505;-79
2021/10/16 04:11:14;;;;;;;41.53;26.75;;;12.60;82.00;;;;;;6203314;28;20498;-79
2021/10/16 04:14:16;;;;;;;38.10;26.25;;;12.50;82.10;;;;;;6205234;28;20436;-79
2021/10/16 04:17:18;;;;;;;35.33;25.33;;;12.60;82.10;;;;;;6202954;28;20436;-78
2021/10/16 04:20:21;;;;;;;36.15;27.40;;;12.60;82.00;;;;;;6202242;28;20905;-78
2021/10/16 04:23:24;;;;;;;33.90;25.55;;;12.60;81.90;;;;;;6200828;28;20410;-78
2021/10/16 04:26:26;;;;;;;34.33;25.67;;;12.60;81.90;;;;;;6198403;28;20517;-78
2021/10/16 04:29:27;;;;;;;32.33;24.90;;;12.60;81.70;;;;;;6197881;28;20438;-78
2021/10/16 04:32:29;;;;;;;38.63;27.30;;;12.60;81.80;;;;;;6198804;28;20550;-77
2021/10/16 04:35:31;;;;;;;35.00;26.20;;;12.70;81.80;;;;;;6199432;28;20549;-78
2021/10/16 04:38:34;;;;;;;37.38;25.98;;;12.60;82.10;;;;;;6199801;28;20434;-78
2021/10/16 04:41:36;;;;;;;36.30;24.52;;;12.60;81.60;;;;;;6200459;28;20434;-77
2021/10/16 04:44:39;;;;;;;34.13;25.13;;;12.60;81.80;;;;;;6199396;28;20426;-79
2021/10/16 04:47:40;;;;;;;33.70;26.77;;;12.60;81.80;;;;;;6198488;28;20490;-78
2021/10/16 04:50:42;;;;;;;34.35;25.73;;;12.60;81.70;;;;;;6198640;28;20418;-77
2021/10/16 04:53:45;;;;;;;39.53;27.58;;;12.50;81.70;;;;;;6199972;28;20513;-78
2021/10/16 04:56:47;;;;;;;36.22;27.05;;;12.50;81.60;;;;;;6198532;28;20433;-78
2021/10/16 04:59:49;;;;;;;36.42;25.98;;;12.60;81.40;;;;;;6199409;28;20981;-78
2021/10/16 05:02:51;;;;;;;40.15;27.85;;;12.60;81.10;;;;;;6199987;28;20468;-78
2021/10/16 05:05:54;;;;;;;37.97;25.13;;;12.70;80.80;;;;;;6200611;28;20445;-78
2021/10/16 05:08:57;;;;;;;35.20;27.70;;;12.50;80.50;;;;;;6200285;28;20557;-78
2021/10/16 05:11:59;;;;;;;40.90;26.83;;;12.40;81.40;;;;;;6200319;28;20418;-78
2021/10/16 05:15:01;;;;;;;39.05;26.60;;;12.40;81.60;;;;;;6200401;28;21015;-78
2021/10/16 05:18:03;;;;;;;36.85;26.67;;;12.40;81.90;;;;;;6200141;28;20434;-78
2021/10/16 05:21:05;;;;;;;37.40;26.05;;;12.40;81.80;;;;;;6198926;28;20418;-78
2021/10/16 05:24:08;;;;;;;39.92;27.63;;;12.40;81.60;;;;;;6199224;28;20421;-77
2021/10/16 05:27:10;;;;;;;37.45;26.92;;;12.50;81.40;;;;;;6199232;28;20505;-78
2021/10/16 05:30:12;;;;;;;37.08;26.40;;;12.50;80.90;;;;;;6199003;28;20430;-78
2021/10/16 05:33:14;;;;;;;41.37;28.53;;;12.60;80.70;;;;;;6200434;28;20761;-78
2021/10/16 05:36:16;;;;;;;37.22;27.48;;;12.60;80.60;;;;;;6200949;28;20489;-79
2021/10/16 05:39:19;;;;;;;39.10;27.38;;;12.60;80.60;;;;;;6204630;28;20814;-78
2021/10/16 05:42:21;;;;;;;37.90;25.38;;;12.50;80.40;;;;;;6205176;28;20522;-78
2021/10/16 05:45:23;;;;;;;39.67;28.00;;;12.50;80.50;;;;;;6204231;28;20446;-78
2021/10/16 05:48:24;;;;;;;45.33;30.38;;;12.40;80.90;;;;;;6204228;28;20501;-78
2021/10/16 05:51:26;;;;;;;36.85;26.77;;;12.30;81.60;;;;;;6204425;28;20415;-78
2021/10/16 05:54:29;;;;;;;39.22;27.00;;;12.30;81.70;;;;;;6204062;28;20453;-78
2021/10/16 05:57:31;;;;;;;36.20;26.05;;;12.30;82.00;;;;;;6204054;28;20434;-78
2021/10/16 06:00:33;;;;;;;41.33;26.30;;;12.40;81.30;;;;;;6202882;28;20804;-78
2021/10/16 06:03:34;;;;;;;39.95;28.08;;;12.40;81.00;;;;;;6203577;28;21023;-78
2021/10/16 06:06:36;;;;;;;44.20;27.05;;;12.40;80.80;;;;;;6203989;28;20414;-77
2021/10/16 06:09:39;;;;;;;36.50;25.80;;;12.40;80.80;;;;;;6204246;28;20442;-79
2021/10/16 06:12:41;;;;;;;39.30;26.95;;;12.50;80.80;;;;;;6203239;28;20507;-77
2021/10/16 06:15:43;;;;;;;38.15;26.23;;;12.50;80.40;;;;;;6204464;28;20942;-78
2021/10/16 06:18:45;;;;;;;39.10;27.38;;;12.50;80.60;;;;;;6201588;28;20795;-78
2021/10/16 06:21:46;;;;;;;40.92;24.88;;;12.40;81.00;;;;;;6202580;28;20923;-78
2021/10/16 06:24:51;;;;;;;43.67;26.95;;;12.40;80.80;;;;;;6201068;28;20430;-78
2021/10/16 06:27:53;;;;;;;35.55;25.27;;;12.30;81.10;;;;;;6202495;28;20473;-77
2021/10/16 06:30:55;;;;;;;39.05;26.33;;;12.20;82.00;;;;;;6200523;28;20773;-78
2021/10/16 06:33:56;;;;;;;41.85;27.25;;;12.20;81.80;;;;;;6201356;28;20803;-77
2021/10/16 06:36:58;;;;;;;42.30;26.80;;;12.20;81.20;;;;;;6203010;28;20430;-78
2021/10/16 06:40:01;;;;;;;42.15;28.08;;;12.10;81.90;;;;;;6199439;28;20442;-77
2021/10/16 06:43:03;;;;;;;44.67;28.48;;;12.10;82.30;;;;;;6199425;28;20414;-78
2021/10/16 06:46:05;;;;;;;39.58;27.75;;;12.00;82.20;;;;;;6199787;28;20967;-77
2021/10/16 06:49:07;;;;;;;49.47;35.70;;;12.00;82.40;;;;;;6199700;28;20540;-78
2021/10/16 06:52:09;;;;;;;43.75;27.75;;;12.10;82.50;;;;;;6238868;23;20436;-80
2021/10/16 06:55:12;;;;;;;40.55;27.83;;;12.00;81.80;;;;;;6225069;28;20894;-80
2021/10/16 06:58:14;;;;;;;43.22;27.88;;;11.90;82.10;;;;;;6223920;28;20443;-79
2021/10/16 07:01:16;;;;;;;39.67;28.13;;;11.90;82.60;;;;;;6200188;28;20442;-77
2021/10/16 07:04:18;;;;;;;41.08;26.85;;;11.90;82.80;;;;;;6214909;28;20892;-78
2021/10/16 07:07:19;;;;;;;46.42;29.45;;;11.80;82.50;;;;;;6226619;28;20852;-76
2021/10/16 07:10:23;;;;;;;42.97;29.47;;;11.80;83.10;;;;;;6228057;28;21001;-78
2021/10/16 07:13:24;;;;;;;42.67;29.25;;;11.90;83.20;;;;;;6224886;28;20920;-79
2021/10/16 07:16:26;;;;;;;44.60;27.60;;;12.00;82.30;;;;;;6225307;28;20444;-78
2021/10/16 07:19:28;;;;;;;50.43;27.37;;;12.10;82.10;;;;;;6224145;28;20413;-80
2021/10/16 07:22:30;;;;;;;37.83;27.40;;;12.10;81.40;;;;;;6225012;28;20466;-79
2021/10/16 07:25:33;;;;;;;41.90;27.73;;;12.20;81.60;;;;;;6225247;28;20455;-79
2021/10/16 07:28:35;;;;;;;48.00;29.73;;;12.20;81.60;;;;;;6225015;28;20424;-80
2021/10/16 07:31:37;;;;;;;49.28;32.75;;;12.20;81.80;;;;;;6218732;28;20418;-77
2021/10/16 07:34:39;;;;;;;47.97;28.65;;;12.20;81.80;;;;;;6221943;28;20459;-77
2021/10/16 07:37:40;;;;;;;50.25;28.30;;;12.30;81.50;;;;;;6222804;28;20571;-77
2021/10/16 07:40:44;;;;;;;49.10;30.08;;;12.10;81.70;;;;;;6221221;28;21235;-77
2021/10/16 07:43:45;;;;;;;46.30;28.50;;;12.10;82.00;;;;;;6221597;28;20432;-77
2021/10/16 07:46:48;;;;;;;42.40;29.42;;;12.20;83.10;;;;;;6221670;28;20416;-77
2021/10/16 07:49:50;;;;;;;43.80;27.15;;;12.30;82.00;;;;;;6221293;28;20909;-77
2021/10/16 07:52:52;;;;;;;40.53;28.42;;;12.40;82.00;;;;;;6221353;28;20417;-77
2021/10/16 07:55:55;;;;;;;44.35;28.45;;;12.50;81.00;;;;;;6221880;28;20421;-77
2021/10/16 07:58:57;;;;;;;39.15;25.63;;;12.70;82.50;;;;;;6211389;28;20427;-77
2021/10/16 08:01:59;;;;;;;39.97;25.87;;;12.80;80.30;;;;;;6218216;28;20436;-77
2021/10/16 08:05:01;;;;;;;38.97;26.58;;;12.80;80.40;;;;;;6221188;28;20416;-77
2021/10/16 08:08:03;;;;;;;52.85;33.60;;;12.90;79.50;;;;;;6221125;28;20417;-77
2021/10/16 08:11:07;;;;;;;38.92;26.63;;;12.90;79.10;;;;;;6221096;28;20424;-76
2021/10/16 08:14:08;;;;;;;35.47;22.67;;;13.00;79.90;;;;;;6221496;28;20488;-76
2021/10/16 08:17:10;;;;;;;38.97;25.48;;;13.00;77.80;;;;;;6220812;28;20428;-76
2021/10/16 08:20:12;;;;;;;40.53;26.65;;;12.80;78.50;;;;;;6221346;28;20467;-76
2021/10/16 08:23:14;;;;;;;37.08;24.10;;;12.80;78.70;;;;;;6220988;28;20416;-77
2021/10/16 08:26:17;;;;;;;33.87;22.43;;;12.80;78.60;;;;;;6221195;28;20444;-77
2021/10/16 08:29:19;;;;;;;32.80;23.33;;;13.00;78.50;;;;;;6220711;28;20459;-77
2021/10/16 08:32:21;;;;;;;32.53;23.38;;;13.20;77.50;;;;;;6216498;28;20420;-77
2021/10/16 08:35:23;;;;;;;35.78;23.23;;;13.20;76.90;;;;;;6220559;28;20425;-76
2021/10/16 08:38:25;;;;;;;31.65;21.58;;;13.20;77.10;;;;;;6220343;28;20424;-77
2021/10/16 08:41:28;;;;;;;35.35;23.52;;;13.20;77.50;;;;;;6220862;28;20512;-76
2021/10/16 08:44:30;;;;;;;35.70;24.38;;;13.30;76.20;;;;;;6220279;28;20421;-77
2021/10/16 08:47:34;;;;;;;34.70;22.27;;;13.40;76.60;;;;;;6220623;28;20547;-77
2021/10/16 08:50:36;;;;;;;35.38;23.65;;;13.40;76.30;;;;;;6219805;28;20479;-77
2021/10/16 08:53:39;;;;;;;32.25;22.48;;;13.50;76.20;;;;;;6220978;28;20429;-77
2021/10/16 08:56:42;;;;;;;36.42;22.88;;;13.40;76.60;;;;;;6220033;28;20420;-78
2021/10/16 08:59:44;;;;;;;33.17;23.15;;;13.30;75.70;;;;;;6210021;28;20422;-77
2021/10/16 09:02:46;;;;;;;36.95;23.80;;;13.30;76.30;;;;;;6213820;28;20424;-78
2021/10/16 09:06:10;;;;;;;32.03;22.05;;;13.20;76.60;;;;;;6220547;28;20440;-77
2021/10/16 09:09:12;;;;;;;31.48;21.48;;;13.30;77.60;;;;;;6219927;28;20829;-78
2021/10/16 09:12:17;;;;;;;31.92;21.73;;;13.40;76.70;;;;;;6219743;28;20409;-77
2021/10/16 09:15:22;;;;;;;36.03;21.97;;;13.50;76.10;;;;;;6219873;28;20417;-77
2021/10/16 09:18:24;;;;;;;30.38;20.83;;;13.40;75.60;;;;;;6220195;28;20447;-76
2021/10/16 09:21:27;;;;;;;30.20;20.40;;;13.40;75.50;;;;;;6219993;28;20429;-77
2021/10/16 09:24:31;;;;;;;31.33;20.25;;;13.50;75.60;;;;;;6219773;28;20428;-78
2021/10/16 09:27:34;;;;;;;26.38;20.25;;;13.70;75.30;;;;;;6219813;28;20767;-77
2021/10/16 09:30:43;;;;;;;30.50;21.45;;;13.90;75.10;;;;;;6219554;28;20417;-77
2021/10/16 09:33:46;;;;;;;28.07;20.77;;;14.10;74.30;;;;;;6220178;28;20432;-78
2021/10/16 09:36:48;;;;;;;29.30;20.03;;;14.40;72.90;;;;;;6219970;28;20421;-76
2021/10/16 09:39:56;;;;;;;27.98;20.45;;;14.50;72.60;;;;;;6219555;28;20500;-76
2021/10/16 09:42:59;;;;;;;29.70;19.97;;;14.60;71.80;;;;;;6219615;28;20420;-78
2021/10/16 09:46:13;;;;;;;27.03;20.50;;;14.60;71.60;;;;;;6220075;28;20616;-77
2021/10/16 09:49:14;;;;;;;27.67;21.10;;;14.40;71.20;;;;;;6219426;28;20408;-78
2021/10/16 09:52:18;;;;;;;28.95;19.95;;;14.30;72.70;;;;;;6219464;28;20794;-77
2021/10/16 09:55:20;;;;;;;29.00;19.70;;;14.40;72.00;;;;;;6219393;28;20423;-77
2021/10/16 09:58:24;;;;;;;28.75;21.27;;;14.40;72.40;;;;;;6219835;28;20440;-77
2021/10/16 10:01:25;;;;;;;26.25;19.02;;;14.50;71.90;;;;;;6211734;28;20434;-77
2021/10/16 10:04:28;;;;;;;28.98;21.60;;;14.40;72.00;;;;;;6219535;28;20431;-77
2021/10/16 10:07:32;;;;;;;26.50;20.00;;;14.40;72.10;;;;;;6220061;28;20450;-78
2021/10/16 10:10:34;;;;;;;29.63;19.75;;;14.50;71.80;;;;;;6216701;28;20942;-78
2021/10/16 10:13:37;;;;;;;28.60;21.33;;;14.60;71.90;;;;;;6225115;28;20432;-77
2021/10/16 10:16:40;;;;;;;24.60;18.95;;;14.70;71.70;;;;;;6219143;28;20786;-77
2021/10/16 10:19:44;;;;;;;23.38;18.92;;;14.80;70.90;;;;;;6219005;28;20882;-78
2021/10/16 10:22:46;;;;;;;25.35;20.88;;;15.10;70.50;;;;;;6220564;28;20409;-78
2021/10/16 10:25:47;;;;;;;23.40;18.63;;;15.10;69.60;;;;;;6224400;28;20439;-78
2021/10/16 10:28:55;;;;;;;28.98;22.45;;;15.10;70.00;;;;;;6223306;28;21159;-77
2021/10/16 10:32:06;;;;;;;26.58;20.58;;;15.10;69.50;;;;;;6223754;28;20431;-77
2021/10/16 10:35:10;;;;;;;25.70;20.88;;;15.00;70.00;;;;;;6223247;28;20444;-79
2021/10/16 10:38:29;;;;;;;25.60;20.83;;;15.10;69.40;;;;;;6224190;28;20432;-78
2021/10/16 10:41:31;;;;;;;27.98;21.90;;;15.00;69.70;;;;;;6223453;28;20413;-78
2021/10/16 10:44:41;;;;;;;27.30;20.67;;;15.00;70.30;;;;;;6223857;28;20782;-78
2021/10/16 10:47:57;;;;;;;26.70;19.20;;;15.00;69.60;;;;;;6223582;28;20424;-77
2021/10/16 10:51:01;;;;;;;21.63;16.63;;;15.00;73.20;;;;;;6222828;28;20444;-78
2021/10/16 10:54:11;;;;;;;22.55;17.90;;;15.20;76.40;;;;;;6223442;28;20750;-77
2021/10/16 10:57:13;;;;;;;24.92;20.27;;;15.40;71.30;;;;;;6222774;28;20936;-78
2021/10/16 11:00:17;;;;;;;27.58;21.58;;;15.40;70.30;;;;;;6222881;28;20579;-78
2021/10/16 11:03:44;;;;;;;27.33;20.52;;;15.50;68.10;;;;;;6219853;28;20500;-78
2021/10/16 11:06:57;;;;;;;25.20;19.92;;;15.30;69.50;;;;;;6222987;28;20420;-78
2021/10/16 11:09:59;;;;;;;28.90;21.42;;;15.30;68.90;;;;;;6223149;28;20441;-79
2021/10/16 11:13:11;;;;;;;27.70;21.98;;;15.40;69.00;;;;;;6222230;28;20512;-78
2021/10/16 11:16:14;;;;;;;25.08;19.60;;;15.50;68.50;;;;;;6222865;28;20421;-77
2021/10/16 11:19:16;;;;;;;27.00;21.35;;;15.70;68.10;;;;;;6222257;28;20429;-77
2021/10/16 11:22:18;;;;;;;28.58;22.05;;;15.70;67.90;;;;;;6221953;28;20906;-76
2021/10/16 11:25:23;;;;;;;24.00;20.55;;;15.70;67.30;;;;;;6222938;28;20443;-76
2021/10/16 11:28:25;;;;;;;25.73;19.63;;;15.70;69.40;;;;;;6221826;28;20781;-77
2021/10/16 11:31:29;;;;;;;19.70;16.70;;;15.80;69.30;;;;;;6221878;28;20421;-77
2021/10/16 11:34:30;;;;;;;21.55;17.17;;;15.90;71.30;;;;;;6220922;28;20436;-76
2021/10/16 11:37:38;;;;;;;24.35;19.92;;;16.00;67.80;;;;;;6226084;28;20447;-82
2021/10/16 11:40:41;;;;;;;21.63;19.30;;;16.10;68.80;;;;;;6227256;28;20524;-83
2021/10/16 11:43:42;;;;;;;24.13;18.50;;;16.30;66.00;;;;;;6226738;28;20413;-82
2021/10/16 11:46:57;;;;;;;22.73;17.52;;;16.40;67.90;;;;;;6227970;28;20903;-82
2021/10/16 11:50:10;;;;;;;23.10;19.17;;;16.40;67.50;;;;;;6227804;28;20798;-79
2021/10/16 11:53:14;;;;;;;25.80;20.42;;;16.60;64.90;;;;;;6227063;28;20428;-82
2021/10/16 11:56:17;;;;;;;25.10;19.52;;;16.50;64.80;;;;;;6227432;28;20413;-82
2021/10/16 11:59:20;;;;;;;25.00;19.83;;;16.20;65.70;;;;;;6228140;28;20424;-82
2021/10/16 12:02:36;;;;;;;22.85;18.35;;;16.30;65.70;;;;;;6215096;28;20430;-79
2021/10/16 12:05:38;;;;;;;23.55;19.70;;;16.40;65.40;;;;;;6221684;28;20579;-80
2021/10/16 12:08:45;;;;;;;23.75;19.60;;;16.50;65.00;;;;;;6224506;28;20427;-80
2021/10/16 12:11:47;;;;;;;23.77;19.77;;;16.50;64.90;;;;;;6225499;28;20776;-78
2021/10/16 12:14:49;;;;;;;23.50;19.33;;;16.50;65.80;;;;;;6224590;28;20779;-80
2021/10/16 12:17:52;;;;;;;27.23;18.85;;;16.60;65.20;;;;;;6225486;28;20459;-82
2021/10/16 12:20:56;;;;;;;23.00;18.83;;;16.80;64.40;;;;;;6225239;28;20415;-81
2021/10/16 12:24:00;;;;;;;24.63;20.43;;;16.80;64.40;;;;;;6226139;28;20416;-81
2021/10/16 12:27:06;;;;;;;23.33;19.55;;;16.80;64.20;;;;;;6225991;28;21044;-81
2021/10/16 12:30:10;;;;;;;22.33;19.92;;;17.00;63.80;;;;;;6225731;28;20429;-80
2021/10/16 12:33:13;;;;;;;21.95;18.83;;;17.00;62.30;;;;;;6225997;28;20427;-80
2021/10/16 12:36:24;;;;;;;22.17;19.20;;;16.90;63.40;;;;;;6225203;28;20423;-80
2021/10/16 12:39:29;;;;;;;23.70;20.45;;;16.90;63.80;;;;;;6227217;28;20417;-83
2021/10/16 12:42:34;;;;;;;25.20;19.90;;;16.80;64.00;;;;;;6227456;28;20428;-81
2021/10/16 12:45:37;;;;;;;21.95;17.80;;;16.80;64.00;;;;;;6229898;28;20440;-81
2021/10/16 12:48:51;;;;;;;22.05;19.40;;;16.90;63.80;;;;;;6230448;28;20421;-81
2021/10/16 12:51:53;;;;;;;20.63;17.65;;;16.90;63.50;;;;;;6213168;28;20431;-80
2021/10/16 12:54:57;;;;;;;28.17;18.60;;;16.80;63.50;;;;;;6228364;28;20417;-82
2021/10/16 12:58:00;;;;;;;21.17;18.33;;;16.90;63.40;;;;;;6230305;28;20436;-82
2021/10/16 13:01:02;;;;;;;20.88;16.85;;;17.00;63.50;;;;;;6225527;28;20470;-82
2021/10/16 13:04:05;;;;;;;24.55;18.60;;;17.00;63.70;;;;;;6226541;28;20452;-81
2021/10/16 13:07:07;;;;;;;21.40;18.27;;;16.90;63.50;;;;;;6226424;28;20506;-81
2021/10/16 13:10:10;;;;;;;22.92;18.35;;;16.80;64.60;;;;;;6227706;28;20502;-81
2021/10/16 13:13:11;;;;;;;24.15;19.30;;;16.80;64.10;;;;;;6226456;28;20950;-81
2021/10/16 13:16:13;;;;;;;22.70;17.85;;;16.90;63.80;;;;;;6227290;28;20494;-81
2021/10/16 13:19:17;;;;;;;21.47;16.87;;;16.90;63.40;;;;;;6226851;28;20423;-81
2021/10/16 13:22:19;;;;;;;22.15;17.17;;;17.10;64.00;;;;;;6228914;28;20446;-81
2021/10/16 13:25:21;;;;;;;20.93;17.47;;;17.10;63.10;;;;;;6232947;28;20416;-81
2021/10/16 13:28:23;;;;;;;21.55;17.73;;;17.10;63.20;;;;;;6238374;28;20503;-81
2021/10/16 13:31:24;;;;;;;17.98;15.95;;;17.10;63.20;;;;;;6224529;28;20790;-81
2021/10/16 13:34:27;;;;;;;22.50;17.52;;;17.10;63.20;;;;;;6224535;28;20479;-81
2021/10/16 13:37:30;;;;;;;20.63;16.85;;;17.00;63.10;;;;;;6224847;28;20483;-81
2021/10/16 13:40:32;;;;;;;21.30;17.70;;;16.80;63.80;;;;;;6223692;28;20421;-81
2021/10/16 13:43:33;;;;;;;23.45;17.85;;;16.80;63.60;;;;;;6224146;28;20914;-81
2021/10/16 13:46:35;;;;;;;21.70;17.73;;;16.80;64.20;;;;;;6225925;28;20476;-81
2021/10/16 13:49:38;;;;;;;22.60;17.83;;;16.90;64.40;;;;;;6226459;28;20921;-81
2021/10/16 13:52:40;;;;;;;22.17;16.58;;;16.90;63.40;;;;;;6225332;28;20456;-81
2021/10/16 13:55:42;;;;;;;18.70;16.67;;;16.90;63.90;;;;;;6226614;28;20504;-81
2021/10/16 13:58:44;;;;;;;19.90;17.30;;;17.00;63.60;;;;;;6227732;28;20424;-81
2021/10/16 14:01:46;;;;;;;20.87;16.00;;;17.10;63.50;;;;;;6231274;28;20505;-81
2021/10/16 14:04:49;;;;;;;18.92;15.68;;;17.20;63.50;;;;;;6219410;28;20470;-82
2021/10/16 14:07:51;;;;;;;20.27;16.60;;;17.20;63.10;;;;;;6223938;28;20806;-81
2021/10/16 14:10:52;;;;;;;17.10;14.70;;;17.20;63.10;;;;;;6231583;28;20510;-81
2021/10/16 14:13:54;;;;;;;19.77;15.37;;;17.20;63.50;;;;;;6230805;28;20451;-80
2021/10/16 14:16:56;;;;;;;18.77;16.13;;;17.00;63.20;;;;;;6229180;28;20434;-81
2021/10/16 14:19:59;;;;;;;18.10;15.50;;;16.90;63.80;;;;;;6229817;28;20503;-80
2021/10/16 14:23:01;;;;;;;17.30;14.95;;;16.90;64.20;;;;;;6229910;28;20547;-81
2021/10/16 14:26:03;;;;;;;18.20;16.25;;;16.90;64.30;;;;;;6229724;28;20447;-81
2021/10/16 14:29:05;;;;;;;16.05;14.27;;;17.10;63.70;;;;;;6229026;28;20432;-79
2021/10/16 14:32:07;;;;;;;18.10;15.18;;;17.30;62.60;;;;;;6222931;28;20775;-80
2021/10/16 14:35:10;;;;;;;16.27;14.57;;;17.40;62.60;;;;;;6227171;28;20478;-79
2021/10/16 14:38:12;;;;;;;17.90;16.10;;;17.40;62.00;;;;;;6228011;28;20465;-79
2021/10/16 14:41:14;;;;;;;18.63;14.52;;;17.50;61.50;;;;;;6227143;28;20913;-80
2021/10/16 14:44:16;;;;;;;23.90;19.07;;;17.50;61.60;;;;;;6229708;28;20460;-82
2021/10/16 14:47:18;;;;;;;16.75;15.00;;;17.50;61.50;;;;;;6229547;28;20408;-80
2021/10/16 14:50:21;;;;;;;15.05;13.25;;;17.60;61.10;;;;;;6227871;28;20436;-77
2021/10/16 14:53:22;;;;;;;17.33;15.15;;;17.80;61.00;;;;;;6228199;28;20449;-80
2021/10/16 14:56:26;;;;;;;18.67;14.02;;;17.90;60.20;;;;;;6226422;28;20420;-80
2021/10/16 14:59:28;;;;;;;16.85;14.38;;;18.00;60.10;;;;;;6199499;28;20426;-80
2021/10/16 15:02:29;;;;;;;15.32;13.82;;;18.10;59.70;;;;;;6228257;28;20436;-80
2021/10/16 15:05:32;;;;;;;20.08;15.30;;;18.20;59.90;;;;;;6220528;28;20500;-81
2021/10/16 15:08:34;;;;;;;32.08;26.30;;;18.20;58.80;;;;;;6202750;28;20502;-79
2021/10/16 15:11:36;;;;;;;16.65;13.75;;;18.00;59.30;;;;;;6202137;28;20792;-79
2021/10/16 15:14:38;;;;;;;17.35;14.55;;;18.00;59.60;;;;;;6202816;28;20808;-79
2021/10/16 15:17:39;;;;;;;15.15;13.48;;;17.90;59.70;;;;;;6203553;28;20445;-79
2021/10/16 15:20:43;;;;;;;15.25;13.65;;;17.80;60.00;;;;;;6204394;28;20803;-79
2021/10/16 15:23:44;;;;;;;15.17;13.67;;;17.80;60.00;;;;;;6206143;28;20429;-82
2021/10/16 15:26:46;;;;;;;14.80;13.27;;;17.70;60.00;;;;;;6204781;28;20414;-81
2021/10/16 15:29:48;;;;;;;17.95;14.77;;;17.60;60.80;;;;;;6201893;28;20477;-81